createdAt,value
2023-05-01T00:00:44.636Z,100.00
2023-05-01T00:03:14.657Z,100.00
2023-05-01T00:05:43.337Z,100.00
2023-05-01T00:08:11.873Z,100.00
2023-05-01T00:10:40.634Z,100.00
2023-05-01T00:13:10.805Z,100.00
2023-05-01T00:15:43.797Z,100.00
2023-05-01T00:18:12.261Z,100.00
2023-05-01T00:20:40.629Z,100.00
2023-05-01T00:23:08.989Z,100.00
2023-05-01T00:25:37.478Z,100.00
2023-05-01T00:28:07.788Z,100.00
2023-05-01T00:30:36.806Z,100.00
2023-05-01T00:33:06.660Z,100.00
2023-05-01T00:35:35.777Z,100.00
2023-05-01T00:38:04.262Z,100.00
2023-05-01T00:40:32.585Z,100.00
2023-05-01T00:43:00.989Z,100.00
2023-05-01T00:45:29.497Z,100.00
2023-05-01T00:47:57.892Z,100.00
2023-05-01T00:50:28.048Z,100.00
2023-05-01T00:52:56.336Z,100.00
2023-05-01T00:55:25.148Z,100.00
2023-05-01T00:57:54.206Z,100.00
2023-05-01T01:00:24.832Z,100.00
2023-05-01T01:02:57.628Z,100.00
2023-05-01T01:05:32.711Z,100.00
2023-05-01T01:08:11.318Z,100.00
2023-05-01T01:10:54.592Z,100.00
2023-05-01T01:13:31.310Z,100.00
2023-05-01T01:16:10.274Z,100.00
2023-05-01T01:18:45.068Z,100.00
2023-05-01T01:21:27.649Z,100.00
2023-05-01T01:24:37.132Z,100.00
2023-05-01T01:27:40.927Z,100.00
2023-05-01T01:30:35.678Z,100.00
2023-05-01T01:33:31.485Z,100.00
2023-05-01T01:36:09.177Z,100.00
2023-05-01T01:38:44.819Z,100.00
2023-05-01T01:41:27.715Z,100.00
2023-05-01T01:44:03.756Z,100.00
2023-05-01T01:46:40.704Z,100.00
2023-05-01T01:49:17.668Z,100.00
2023-05-01T01:51:49.943Z,100.00
2023-05-01T01:54:27.184Z,100.00
2023-05-01T01:56:58.434Z,100.00
2023-05-01T01:59:27.382Z,100.00
2023-05-01T02:01:57.799Z,100.00
2023-05-01T02:04:28.838Z,100.00
2023-05-01T02:07:01.516Z,100.00
2023-05-01T02:09:31.589Z,100.00
2023-05-01T02:12:01.952Z,100.00
2023-05-01T02:14:31.775Z,100.00
2023-05-01T02:17:01.011Z,100.00
2023-05-01T02:19:29.993Z,100.00
2023-05-01T02:22:00.854Z,100.00
2023-05-01T02:24:32.090Z,100.00
2023-05-01T02:27:09.544Z,100.00
2023-05-01T02:29:37.845Z,100.00
2023-05-01T02:32:06.525Z,100.00
2023-05-01T02:34:36.608Z,100.00
2023-05-01T02:37:09.254Z,100.00
2023-05-01T02:39:38.010Z,100.00
2023-05-01T02:42:08.183Z,100.00
2023-05-01T02:44:43.668Z,100.00
2023-05-01T02:47:16.979Z,100.00
2023-05-01T02:49:48.114Z,100.00
2023-05-01T02:52:20.015Z,100.00
2023-05-01T02:54:49.103Z,100.00
2023-05-01T02:57:20.432Z,100.00
2023-05-01T02:59:48.935Z,100.00
2023-05-01T03:02:17.238Z,100.00
2023-05-01T03:04:45.733Z,100.00
2023-05-01T03:07:14.593Z,100.00
2023-05-01T03:09:44.468Z,100.00
2023-05-01T03:12:12.659Z,100.00
2023-05-01T03:14:41.061Z,100.00
2023-05-01T03:17:09.370Z,100.00
2023-05-01T03:19:37.684Z,100.00
2023-05-01T03:22:06.054Z,100.00
2023-05-01T03:24:34.521Z,100.00
2023-05-01T03:27:04.771Z,100.00
2023-05-01T03:29:34.079Z,100.00
2023-05-01T03:32:02.696Z,100.00
2023-05-01T03:34:31.234Z,100.00
2023-05-01T03:37:00.209Z,100.00
2023-05-01T03:39:28.546Z,100.00
2023-05-01T03:41:57.538Z,100.00
2023-05-01T03:44:27.849Z,100.00
2023-05-01T03:46:56.103Z,100.00
2023-05-01T03:49:25.388Z,100.00
2023-05-01T03:51:54.072Z,100.00
2023-05-01T03:54:22.761Z,100.00
2023-05-01T03:56:51.243Z,100.00
2023-05-01T03:59:19.636Z,100.00
2023-05-01T04:01:51.529Z,100.00
2023-05-01T04:04:23.038Z,100.00
2023-05-01T04:06:54.353Z,100.00
2023-05-01T04:09:22.762Z,100.00
2023-05-01T04:11:51.070Z,100.00
2023-05-01T04:14:20.460Z,100.00
2023-05-01T04:16:51.025Z,100.00
2023-05-01T04:19:19.358Z,100.00
2023-05-01T04:21:48.179Z,100.00
2023-05-01T04:24:16.737Z,100.00
2023-05-01T04:26:45.120Z,100.00
2023-05-01T04:29:13.455Z,100.00
2023-05-01T04:31:43.395Z,100.00
2023-05-01T04:34:13.222Z,100.00
2023-05-01T04:36:41.617Z,100.00
2023-05-01T04:39:10.709Z,100.00
2023-05-01T04:41:39.220Z,100.00
2023-05-01T04:44:07.753Z,100.00
2023-05-01T04:46:36.255Z,100.00
2023-05-01T04:49:04.855Z,100.00
2023-05-01T04:51:34.764Z,100.00
2023-05-01T04:54:04.730Z,100.00
2023-05-01T04:56:33.183Z,100.00
2023-05-01T04:59:01.939Z,100.00
2023-05-01T05:01:30.662Z,100.00
2023-05-01T05:03:59.683Z,100.00
2023-05-01T05:06:28.474Z,100.00
2023-05-01T05:08:58.938Z,100.00
2023-05-01T05:11:27.804Z,100.00
2023-05-01T05:13:56.226Z,100.00
2023-05-01T05:16:28.004Z,100.00
2023-05-01T05:18:58.052Z,100.00
2023-05-01T05:21:28.793Z,100.00
2023-05-01T05:23:58.917Z,100.00
2023-05-01T05:26:27.422Z,100.00
2023-05-01T05:28:56.697Z,100.00
2023-05-01T05:31:25.291Z,100.00
2023-05-01T05:33:53.775Z,100.00
2023-05-01T05:36:27.747Z,100.00
2023-05-01T05:38:56.270Z,100.00
2023-05-01T05:41:27.193Z,100.00
2023-05-01T05:43:55.789Z,100.00
2023-05-01T05:46:24.726Z,100.00
2023-05-01T05:48:53.143Z,100.00
2023-05-01T05:51:21.626Z,100.00
2023-05-01T05:53:50.488Z,100.00
2023-05-01T05:56:22.026Z,100.00
2023-05-01T05:58:51.809Z,100.00
2023-05-01T06:01:20.167Z,100.00
2023-05-01T06:03:48.661Z,100.00
2023-05-01T06:06:17.461Z,100.00
2023-05-01T06:08:46.422Z,100.00
2023-05-01T06:11:14.996Z,100.00
2023-05-01T06:13:43.312Z,100.00
2023-05-01T06:16:13.395Z,100.00
2023-05-01T06:18:43.382Z,100.00
2023-05-01T06:21:14.032Z,100.00
2023-05-01T06:23:42.361Z,100.00
2023-05-01T06:26:10.645Z,100.00
2023-05-01T06:28:38.946Z,100.00
2023-05-01T06:31:07.546Z,100.00
2023-05-01T06:33:37.998Z,100.00
2023-05-01T06:36:09.596Z,100.00
2023-05-01T06:38:42.137Z,100.00
2023-05-01T06:41:11.363Z,100.00
2023-05-01T06:43:39.716Z,100.00
2023-05-01T06:46:08.323Z,100.00
2023-05-01T06:48:38.319Z,100.00
2023-05-01T06:51:07.096Z,100.00
2023-05-01T06:53:37.123Z,100.00
2023-05-01T06:56:05.949Z,100.00
2023-05-01T06:58:34.494Z,100.00
2023-05-01T07:01:03.004Z,100.00
2023-05-01T07:03:31.651Z,100.00
2023-05-01T07:06:02.091Z,100.00
2023-05-01T07:08:31.053Z,100.00
2023-05-01T07:10:59.771Z,100.00
2023-05-01T07:13:28.001Z,100.00
2023-05-01T07:15:56.292Z,100.00
2023-05-01T07:18:26.484Z,100.00
2023-05-01T07:20:54.500Z,100.00
2023-05-01T07:23:25.405Z,100.00
2023-05-01T07:25:54.155Z,100.00
2023-05-01T07:28:22.825Z,100.00
2023-05-01T07:30:50.899Z,100.00
2023-05-01T07:33:19.107Z,100.00
2023-05-01T07:35:48.195Z,100.00
2023-05-01T07:38:17.932Z,100.00
2023-05-01T07:40:47.276Z,100.00
2023-05-01T07:43:15.961Z,100.00
2023-05-01T07:45:55.039Z,100.00
2023-05-01T07:48:23.257Z,100.00
2023-05-01T07:50:51.324Z,100.00
2023-05-01T07:53:19.309Z,100.00
2023-05-01T07:55:48.666Z,100.00
2023-05-01T07:58:17.880Z,100.00
2023-05-01T08:00:46.289Z,100.00
2023-05-01T08:03:14.780Z,100.00
2023-05-01T08:05:43.457Z,100.00
2023-05-01T08:08:13.328Z,100.00
2023-05-01T08:10:41.814Z,100.00
2023-05-01T08:13:11.503Z,100.00
2023-05-01T08:15:42.647Z,100.00
2023-05-01T08:18:12.968Z,100.00
2023-05-01T08:20:41.876Z,100.00
2023-05-01T08:23:10.304Z,100.00
2023-05-01T08:25:38.675Z,100.00
2023-05-01T08:28:07.032Z,100.00
2023-05-01T08:30:37.065Z,100.00
2023-05-01T08:33:05.772Z,100.00
2023-05-01T08:35:34.061Z,100.00
2023-05-01T08:38:03.097Z,100.00
2023-05-01T08:40:38.432Z,100.00
2023-05-01T08:43:06.655Z,100.00
2023-05-01T08:45:39.299Z,100.00
2023-05-01T08:48:08.327Z,100.00
2023-05-01T08:50:37.898Z,100.00
2023-05-01T08:53:07.724Z,100.00
2023-05-01T08:55:37.651Z,100.00
2023-05-01T08:58:08.476Z,100.00
2023-05-01T09:00:39.378Z,100.00
2023-05-01T09:03:10.729Z,100.00
2023-05-01T09:05:39.435Z,100.00
2023-05-01T09:08:08.099Z,100.00
2023-05-01T09:10:46.426Z,100.00
2023-05-01T09:13:14.829Z,100.00
2023-05-01T09:15:44.967Z,100.00
2023-05-01T09:18:13.912Z,100.00
2023-05-01T09:20:43.082Z,100.00
2023-05-01T09:23:12.841Z,100.00
2023-05-01T09:25:41.514Z,100.00
2023-05-01T09:28:10.154Z,100.00
2023-05-01T09:30:40.459Z,100.00
2023-05-01T09:33:12.382Z,100.00
2023-05-01T09:35:52.745Z,100.00
2023-05-01T09:38:23.562Z,100.00
2023-05-01T09:40:53.871Z,100.00
2023-05-01T09:43:30.386Z,100.00
2023-05-01T09:46:05.381Z,100.00
2023-05-01T09:48:36.203Z,100.00
2023-05-01T09:51:23.288Z,100.00
2023-05-01T09:53:55.793Z,100.00
2023-05-01T09:56:24.798Z,100.00
2023-05-01T09:58:54.550Z,98.40
2023-05-01T10:01:40.382Z,100.00
2023-05-01T10:04:11.005Z,92.42
2023-05-01T10:06:40.287Z,91.47
2023-05-01T10:09:16.799Z,89.52
2023-05-01T10:11:54.589Z,88.49
2023-05-01T10:14:26.926Z,95.94
2023-05-01T10:16:57.803Z,87.60
2023-05-01T10:19:27.691Z,94.70
2023-05-01T10:21:56.231Z,95.21
2023-05-01T10:24:25.132Z,92.26
2023-05-01T10:26:55.098Z,84.54
2023-05-01T10:29:25.585Z,84.49
2023-05-01T10:31:56.841Z,83.54
2023-05-01T10:34:28.832Z,88.88
2023-05-01T10:37:02.283Z,80.42
2023-05-01T10:39:35.431Z,79.72
2023-05-01T10:42:11.522Z,78.38
2023-05-01T10:44:42.014Z,87.82
2023-05-01T10:47:49.086Z,90.25
2023-05-01T10:50:19.537Z,81.21
2023-05-01T10:53:20.242Z,80.47
2023-05-01T10:55:51.171Z,89.50
2023-05-01T10:58:58.371Z,84.40
2023-05-01T11:01:34.276Z,88.76
2023-05-01T11:04:05.855Z,87.08
2023-05-01T11:06:37.878Z,82.00
2023-05-01T11:09:38.837Z,81.38
2023-05-01T11:12:10.349Z,77.10
2023-05-01T11:15:08.495Z,71.02
2023-05-01T11:17:56.285Z,78.86
2023-05-01T11:20:50.901Z,88.03
2023-05-01T11:23:24.030Z,99.60
2023-05-01T11:26:03.826Z,100.00
2023-05-01T11:28:33.248Z,100.00
2023-05-01T11:31:03.447Z,100.00
2023-05-01T11:33:32.799Z,100.00
2023-05-01T11:36:05.176Z,100.00
2023-05-01T11:38:35.172Z,100.00
2023-05-01T11:41:05.860Z,100.00
2023-05-01T11:43:34.695Z,100.00
2023-05-01T11:46:04.578Z,100.00
2023-05-01T11:48:33.673Z,100.00
2023-05-01T11:51:04.513Z,100.00
2023-05-01T11:53:34.449Z,100.00
2023-05-01T11:56:06.925Z,100.00
2023-05-01T11:58:41.900Z,100.00
2023-05-01T12:01:12.782Z,100.00
2023-05-01T12:03:45.558Z,100.00
2023-05-01T12:06:15.146Z,100.00
2023-05-01T12:08:51.111Z,100.00
2023-05-01T12:11:20.677Z,100.00
2023-05-01T12:13:50.325Z,100.00
2023-05-01T12:16:19.006Z,100.00
2023-05-01T12:18:48.422Z,100.00
2023-05-01T12:21:18.771Z,100.00
2023-05-01T12:23:49.578Z,100.00
2023-05-01T12:26:19.122Z,100.00
2023-05-01T12:29:07.550Z,100.00
2023-05-01T12:31:36.729Z,100.00
2023-05-01T12:34:07.982Z,100.00
2023-05-01T12:36:38.441Z,100.00
2023-05-01T12:39:10.185Z,100.00
2023-05-01T12:41:40.986Z,100.00
2023-05-01T12:44:20.869Z,100.00
2023-05-01T12:46:56.849Z,100.00
2023-05-01T12:49:36.311Z,100.00
2023-05-01T12:52:07.780Z,100.00
2023-05-01T12:54:39.989Z,100.00
2023-05-01T12:57:10.585Z,100.00
2023-05-01T12:59:40.384Z,100.00
2023-05-01T13:02:13.653Z,100.00
2023-05-01T13:04:42.696Z,100.00
2023-05-01T13:07:16.995Z,100.00
2023-05-01T13:09:56.046Z,100.00
2023-05-01T13:12:26.751Z,100.00
2023-05-01T13:14:55.872Z,100.00
2023-05-01T13:17:26.624Z,100.00
2023-05-01T13:19:56.312Z,100.00
2023-05-01T13:22:37.899Z,100.00
2023-05-01T13:25:17.462Z,100.00
2023-05-01T13:27:50.750Z,100.00
2023-05-01T13:30:23.133Z,100.00
2023-05-01T13:32:55.919Z,100.00
2023-05-01T13:35:26.209Z,100.00
2023-05-01T13:37:56.184Z,100.00
2023-05-01T13:40:28.885Z,100.00
2023-05-01T13:42:57.362Z,100.00
2023-05-01T13:45:27.739Z,100.00
2023-05-01T13:47:57.463Z,100.00
2023-05-01T13:50:25.899Z,100.00
2023-05-01T13:52:54.489Z,100.00
2023-05-01T13:55:25.843Z,100.00
2023-05-01T13:57:54.302Z,100.00
2023-05-01T14:00:23.349Z,100.00
2023-05-01T14:02:54.081Z,100.00
2023-05-01T14:05:28.419Z,100.00
2023-05-01T14:07:58.922Z,100.00
2023-05-01T14:10:30.535Z,100.00
2023-05-01T14:13:00.278Z,100.00
2023-05-01T14:15:29.822Z,100.00
2023-05-01T14:18:01.037Z,100.00
2023-05-01T14:20:30.066Z,100.00
2023-05-01T14:22:59.057Z,100.00
2023-05-01T14:25:31.666Z,100.00
2023-05-01T14:28:02.056Z,100.00
2023-05-01T14:30:33.903Z,100.00
2023-05-01T14:33:04.276Z,100.00
2023-05-01T14:35:36.519Z,100.00
2023-05-01T14:38:12.072Z,100.00
2023-05-01T14:40:45.996Z,100.00
2023-05-01T14:43:18.790Z,100.00
2023-05-01T14:45:49.993Z,100.00
2023-05-01T14:48:28.799Z,100.00
2023-05-01T14:50:58.550Z,100.00
2023-05-01T14:53:28.474Z,93.24
2023-05-01T14:55:58.416Z,85.34
2023-05-01T14:58:32.312Z,77.95
2023-05-01T15:01:03.865Z,76.84
2023-05-01T15:03:41.033Z,71.92
2023-05-01T15:06:10.574Z,70.63
2023-05-01T15:08:39.457Z,69.68
2023-05-01T15:11:12.040Z,64.86
2023-05-01T15:13:44.368Z,65.44
2023-05-01T15:16:17.784Z,66.11
2023-05-01T15:18:47.551Z,65.77
2023-05-01T15:21:16.097Z,65.15
2023-05-01T15:23:45.224Z,65.87
2023-05-01T15:26:17.545Z,62.78
2023-05-01T15:28:45.851Z,61.82
2023-05-01T15:31:14.266Z,62.88
2023-05-01T15:33:42.922Z,63.49
2023-05-01T15:36:14.612Z,65.24
2023-05-01T15:38:43.330Z,68.67
2023-05-01T15:41:12.568Z,72.78
2023-05-01T15:43:46.654Z,77.83
2023-05-01T15:46:20.093Z,80.82
2023-05-01T15:48:49.101Z,91.69
2023-05-01T15:51:17.442Z,100.00
2023-05-01T15:53:46.063Z,100.00
2023-05-01T15:56:14.176Z,100.00
2023-05-01T15:58:44.139Z,100.00
2023-05-01T16:01:13.600Z,100.00
2023-05-01T16:03:46.897Z,100.00
2023-05-01T16:06:16.120Z,100.00
2023-05-01T16:08:44.441Z,100.00
2023-05-01T16:11:18.417Z,100.00
2023-05-01T16:13:50.571Z,100.00
2023-05-01T16:16:23.872Z,100.00
2023-05-01T16:18:58.902Z,100.00
2023-05-01T16:21:29.265Z,100.00
2023-05-01T16:23:57.944Z,100.00
2023-05-01T16:26:29.757Z,100.00
2023-05-01T16:29:03.453Z,100.00
2023-05-01T16:31:43.494Z,100.00
2023-05-01T16:34:13.672Z,100.00
2023-05-01T16:36:43.608Z,100.00
2023-05-01T16:39:14.906Z,100.00
2023-05-01T16:41:46.305Z,100.00
2023-05-01T16:44:17.440Z,100.00
2023-05-01T16:46:53.541Z,100.00
2023-05-01T16:49:23.904Z,100.00
2023-05-01T16:51:56.566Z,100.00
2023-05-01T16:54:27.007Z,100.00
2023-05-01T16:56:55.301Z,100.00
2023-05-01T16:59:25.200Z,100.00
2023-05-01T17:01:53.701Z,100.00
2023-05-01T17:04:22.326Z,100.00
2023-05-01T17:06:51.397Z,100.00
2023-05-01T17:09:20.042Z,100.00
2023-05-01T17:11:48.394Z,100.00
2023-05-01T17:14:17.746Z,100.00
2023-05-01T17:16:49.954Z,100.00
2023-05-01T17:19:18.491Z,100.00
2023-05-01T17:21:46.778Z,100.00
2023-05-01T17:24:14.994Z,100.00
2023-05-01T17:26:43.502Z,100.00
2023-05-01T17:29:12.141Z,100.00
2023-05-01T17:31:40.736Z,100.00
2023-05-01T17:34:10.470Z,100.00
2023-05-01T17:36:39.059Z,100.00
2023-05-01T17:39:08.926Z,100.00
2023-05-01T17:41:37.226Z,100.00
2023-05-01T17:44:05.819Z,100.00
2023-05-01T17:46:35.611Z,100.00
2023-05-01T17:49:05.805Z,100.00
2023-05-01T17:51:36.265Z,100.00
2023-05-01T17:54:04.846Z,100.00
2023-05-01T17:56:37.778Z,100.00
2023-05-01T17:59:07.293Z,100.00
2023-05-01T18:01:36.126Z,100.00
2023-05-01T18:04:06.101Z,100.00
2023-05-01T18:06:36.704Z,100.00
2023-05-01T18:09:05.491Z,100.00
2023-05-01T18:11:34.794Z,100.00
2023-05-01T18:14:04.579Z,100.00
2023-05-01T18:16:33.226Z,100.00
2023-05-01T18:19:02.640Z,100.00
2023-05-01T18:21:31.552Z,100.00
2023-05-01T18:24:02.657Z,100.00
2023-05-01T18:26:32.987Z,100.00
2023-05-01T18:29:02.558Z,100.00
2023-05-01T18:31:31.218Z,100.00
2023-05-01T18:34:10.244Z,100.00
2023-05-01T18:36:38.660Z,100.00
2023-05-01T18:39:43.070Z,100.00
2023-05-01T18:42:13.096Z,100.00
2023-05-01T18:44:41.855Z,100.00
2023-05-01T18:47:16.815Z,100.00
2023-05-01T18:49:48.080Z,100.00
2023-05-01T18:52:16.474Z,100.00
2023-05-01T18:54:47.322Z,100.00
2023-05-01T18:57:15.757Z,100.00
2023-05-01T18:59:44.917Z,100.00
2023-05-01T19:02:13.585Z,100.00
2023-05-01T19:04:55.890Z,100.00
2023-05-01T19:07:25.970Z,100.00
2023-05-01T19:09:56.066Z,100.00
2023-05-01T19:12:24.663Z,100.00
2023-05-01T19:14:53.145Z,100.00
2023-05-01T19:17:22.198Z,100.00
2023-05-01T19:19:53.422Z,100.00
2023-05-01T19:22:22.038Z,100.00
2023-05-01T19:24:50.530Z,100.00
2023-05-01T19:27:22.485Z,100.00
2023-05-01T19:29:55.997Z,100.00
2023-05-01T19:32:24.758Z,100.00
2023-05-01T19:34:53.113Z,100.00
2023-05-01T19:37:21.620Z,100.00
2023-05-01T19:39:50.237Z,100.00
2023-05-01T19:42:20.372Z,100.00
2023-05-01T19:44:49.538Z,100.00
2023-05-01T19:47:18.469Z,100.00
2023-05-01T19:49:47.763Z,100.00
2023-05-01T19:52:16.301Z,100.00
2023-05-01T19:54:45.217Z,100.00
2023-05-01T19:57:16.428Z,100.00
2023-05-01T19:59:46.232Z,100.00
2023-05-01T20:02:15.183Z,100.00
2023-05-01T20:04:43.768Z,100.00
2023-05-01T20:07:12.379Z,100.00
2023-05-01T20:09:40.875Z,100.00
2023-05-01T20:12:09.214Z,100.00
2023-05-01T20:14:37.567Z,100.00
2023-05-01T20:17:07.845Z,100.00
2023-05-01T20:19:39.437Z,100.00
2023-05-01T20:22:08.328Z,100.00
2023-05-01T20:24:36.641Z,100.00
2023-05-01T20:27:06.123Z,100.00
2023-05-01T20:29:34.620Z,100.00
2023-05-01T20:32:03.065Z,100.00
2023-05-01T20:34:32.676Z,100.00
2023-05-01T20:37:00.977Z,100.00
2023-05-01T20:39:29.454Z,100.00
2023-05-01T20:41:59.197Z,100.00
2023-05-01T20:44:28.122Z,100.00
2023-05-01T20:46:56.511Z,100.00
2023-05-01T20:49:24.981Z,100.00
2023-05-01T20:51:56.687Z,100.00
2023-05-01T20:54:25.037Z,100.00
2023-05-01T20:56:53.516Z,100.00
2023-05-01T20:59:21.889Z,100.00
2023-05-01T21:01:50.702Z,100.00
2023-05-01T21:04:19.217Z,100.00
2023-05-01T21:06:48.016Z,100.00
2023-05-01T21:09:18.014Z,100.00
2023-05-01T21:11:46.167Z,100.00
2023-05-01T21:14:14.420Z,100.00
2023-05-01T21:16:43.378Z,100.00
2023-05-01T21:19:13.376Z,100.00
2023-05-01T21:21:42.679Z,100.00
2023-05-01T21:24:15.797Z,100.00
2023-05-01T21:26:45.584Z,100.00
2023-05-01T21:29:14.230Z,100.00
2023-05-01T21:31:42.704Z,100.00
2023-05-01T21:34:11.058Z,100.00
2023-05-01T21:36:45.983Z,100.00
2023-05-01T21:39:14.706Z,100.00
2023-05-01T21:41:45.843Z,100.00
2023-05-01T21:44:14.294Z,100.00
2023-05-01T21:46:43.252Z,100.00
2023-05-01T21:49:12.867Z,100.00
2023-05-01T21:51:41.433Z,100.00
2023-05-01T21:54:09.644Z,100.00
2023-05-01T21:56:38.048Z,100.00
2023-05-01T21:59:08.106Z,100.00
2023-05-01T22:01:39.542Z,100.00
2023-05-01T22:04:08.553Z,100.00
2023-05-01T22:06:37.149Z,100.00
2023-05-01T22:09:05.927Z,100.00
2023-05-01T22:11:34.820Z,100.00
2023-05-01T22:14:03.232Z,100.00
2023-05-01T22:16:32.934Z,100.00
2023-05-01T22:19:01.616Z,100.00
2023-05-01T22:21:31.805Z,100.00
2023-05-01T22:24:00.123Z,100.00
2023-05-01T22:26:28.454Z,100.00
2023-05-01T22:28:56.817Z,100.00
2023-05-01T22:31:25.197Z,100.00
2023-05-01T22:33:55.398Z,100.00
2023-05-01T22:36:23.981Z,100.00
2023-05-01T22:38:52.237Z,100.00
2023-05-01T22:41:22.742Z,100.00
2023-05-01T22:43:51.826Z,100.00
2023-05-01T22:46:20.218Z,100.00
2023-05-01T22:48:48.634Z,100.00
2023-05-01T22:51:19.844Z,100.00
2023-05-01T22:53:48.350Z,100.00
2023-05-01T22:56:16.754Z,100.00
2023-05-01T22:58:45.166Z,100.00
2023-05-01T23:01:13.493Z,100.00
2023-05-01T23:03:41.791Z,100.00
2023-05-01T23:06:10.563Z,100.00
2023-05-01T23:08:40.395Z,100.00
2023-05-01T23:11:11.183Z,100.00
2023-05-01T23:13:44.593Z,100.00
2023-05-01T23:16:16.316Z,100.00
2023-05-01T23:18:45.774Z,100.00
2023-05-01T23:21:17.467Z,100.00
2023-05-01T23:23:48.816Z,100.00
2023-05-01T23:26:26.395Z,100.00
2023-05-01T23:28:55.194Z,100.00
2023-05-01T23:31:26.665Z,100.00
2023-05-01T23:33:56.055Z,100.00
2023-05-01T23:36:24.444Z,100.00
2023-05-01T23:38:54.094Z,100.00
2023-05-01T23:41:22.764Z,100.00
2023-05-01T23:43:51.163Z,100.00
2023-05-01T23:46:19.493Z,100.00
2023-05-01T23:48:48.056Z,100.00
2023-05-01T23:51:16.389Z,100.00
2023-05-01T23:53:44.861Z,100.00
2023-05-01T23:56:14.613Z,100.00
2023-05-01T23:58:42.978Z,100.00
